sensor_id;sensor_type;location;lat;lon;timestamp;P1;durP1;ratioP1;P2;durP2;ratioP2
61570;SDS011;47463;49.884;10.010;2023-04-24T00:00:00;3;;;2.1;;
61570;SDS011;47463;49.884;10.010;2023-04-24T00:05:00;2.9;;;2;;
61570;SDS011;47463;49.884;10.010;2023-04-24T00:10:00;3.9;;;1.9;;
61570;SDS011;47463;49.884;10.010;2023-04-24T00:15:00;3.2;;;1.9;;
61570;SDS011;47463;49.884;10.010;2023-04-24T00:20:00;3.2;;;1.9;;
61570;SDS011;47463;49.884;10.010;2023-04-24T00:25:00;3;;;1.5;;
61570;SDS011;47463;49.884;10.010;2023-04-24T00:30:00;4.5;;;1.6;;
61570;SDS011;47463;49.884;10.010;2023-04-24T00:35:00;3.5;;;1.8;;
61570;SDS011;47463;49.884;10.010;2023-04-24T00:40:00;2.7;;;1.6;;
61570;SDS011;47463;49.884;10.010;2023-04-24T00:45:00;4;;;1.5;;
61570;SDS011;47463;49.884;10.010;2023-04-24T00:50:00;4;;;1.5;;
61570;SDS011;47463;49.884;10.010;2023-04-24T00:55:00;5.1;;;1.6;;
61570;SDS011;47463;49.884;10.010;2023-04-24T01:00:00;2.4;;;1.7;;
61570;SDS011;47463;49.884;10.010;2023-04-24T01:05:00;3.5;;;1.6;;
61570;SDS011;47463;49.884;10.010;2023-04-24T01:10:00;3.6;;;1.8;;
61570;SDS011;47463;49.884;10.010;2023-04-24T01:15:00;3.1;;;1.6;;
61570;SDS011;47463;49.884;10.010;2023-04-24T01:20:00;3.1;;;1.6;;
61570;SDS011;47463;49.884;10.010;2023-04-24T01:25:00;2.7;;;1.7;;
61570;SDS011;47463;49.884;10.010;2023-04-24T01:30:00;2.6;;;1.6;;
61570;SDS011;47463;49.884;10.010;2023-04-24T01:35:00;3.9;;;1.6;;
61570;SDS011;47463;49.884;10.010;2023-04-24T01:40:00;2.8;;;1.5;;
61570;SDS011;47463;49.884;10.010;2023-04-24T01:45:00;1.4;;;1.1;;
61570;SDS011;47463;49.884;10.010;2023-04-24T01:50:00;1.4;;;1.1;;
61570;SDS011;47463;49.884;10.010;2023-04-24T01:55:00;3.3;;;1.3;;
61570;SDS011;47463;49.884;10.010;2023-04-24T02:00:00;4.4;;;1.4;;
61570;SDS011;47463;49.884;10.010;2023-04-24T02:05:00;3.8;;;1.4;;
61570;SDS011;47463;49.884;10.010;2023-04-24T02:10:00;2.9;;;1.2;;
61570;SDS011;47463;49.884;10.010;2023-04-24T02:15:00;2.6;;;1.4;;
61570;SDS011;47463;49.884;10.010;2023-04-24T02:20:00;2.6;;;1.4;;
61570;SDS011;47463;49.884;10.010;2023-04-24T02:25:00;2.7;;;1.6;;
61570;SDS011;47463;49.884;10.010;2023-04-24T02:30:00;1.8;;;1.3;;
61570;SDS011;47463;49.884;10.010;2023-04-24T02:35:00;3.4;;;1.4;;
61570;SDS011;47463;49.884;10.010;2023-04-24T02:40:00;3.7;;;1.4;;
61570;SDS011;47463;49.884;10.010;2023-04-24T02:45:00;2.4;;;1.7;;
61570;SDS011;47463;49.884;10.010;2023-04-24T02:50:00;2.4;;;1.7;;
61570;SDS011;47463;49.884;10.010;2023-04-24T02:55:00;2.3;;;1.4;;
61570;SDS011;47463;49.884;10.010;2023-04-24T03:00:00;2.6;;;1.4;;
61570;SDS011;47463;49.884;10.010;2023-04-24T03:05:00;2;;;1.3;;
61570;SDS011;47463;49.884;10.010;2023-04-24T03:10:00;2.8;;;1.1;;
61570;SDS011;47463;49.884;10.010;2023-04-24T03:15:00;3.5;;;1.3;;
61570;SDS011;47463;49.884;10.010;2023-04-24T03:20:00;3.5;;;1.3;;
61570;SDS011;47463;49.884;10.010;2023-04-24T03:25:00;1.9;;;1.3;;
61570;SDS011;47463;49.884;10.010;2023-04-24T03:30:00;4.9;;;1.5;;
61570;SDS011;47463;49.884;10.010;2023-04-24T03:35:00;3.7;;;1.4;;
61570;SDS011;47463;49.884;10.010;2023-04-24T03:40:00;3.3;;;1.6;;
61570;SDS011;47463;49.884;10.010;2023-04-24T03:45:00;5.2;;;1.7;;
61570;SDS011;47463;49.884;10.010;2023-04-24T03:50:00;5.2;;;1.7;;
61570;SDS011;47463;49.884;10.010;2023-04-24T03:55:00;4.9;;;1.3;;
61570;SDS011;47463;49.884;10.010;2023-04-24T04:00:00;2.1;;;1.1;;
61570;SDS011;47463;49.884;10.010;2023-04-24T04:05:00;3;;;1.3;;
61570;SDS011;47463;49.884;10.010;2023-04-24T04:10:00;2.1;;;1.3;;
61570;SDS011;47463;49.884;10.010;2023-04-24T04:15:00;3.4;;;1.5;;
61570;SDS011;47463;49.884;10.010;2023-04-24T04:20:00;3.4;;;1.5;;
61570;SDS011;47463;49.884;10.010;2023-04-24T04:25:00;4.2;;;1.4;;
61570;SDS011;47463;49.884;10.010;2023-04-24T04:30:00;4.6;;;1.7;;
61570;SDS011;47463;49.884;10.010;2023-04-24T04:35:00;2;;;1.3;;
61570;SDS011;47463;49.884;10.010;2023-04-24T04:40:00;4.1;;;1.7;;
61570;SDS011;47463;49.884;10.010;2023-04-24T04:45:00;2.3;;;1.5;;
61570;SDS011;47463;49.884;10.010;2023-04-24T04:50:00;2.3;;;1.5;;
61570;SDS011;47463;49.884;10.010;2023-04-24T04:55:00;2.7;;;1.3;;
61570;SDS011;47463;49.884;10.010;2023-04-24T05:00:00;2.5;;;1.4;;
61570;SDS011;47463;49.884;10.010;2023-04-24T05:05:00;4.4;;;1.6;;
61570;SDS011;47463;49.884;10.010;2023-04-24T05:10:00;6.5;;;2;;
61570;SDS011;47463;49.884;10.010;2023-04-24T05:15:00;3.3;;;1.8;;
61570;SDS011;47463;49.884;10.010;2023-04-24T05:20:00;3.3;;;1.8;;
61570;SDS011;47463;49.884;10.010;2023-04-24T05:25:00;2.9;;;1.9;;
61570;SDS011;47463;49.884;10.010;2023-04-24T05:30:00;2.6;;;2.1;;
61570;SDS011;47463;49.884;10.010;2023-04-24T05:35:00;3.6;;;1.8;;
61570;SDS011;47463;49.884;10.010;2023-04-24T05:40:00;4.6;;;2.3;;
61570;SDS011;47463;49.884;10.010;2023-04-24T05:45:00;6.2;;;2.7;;
61570;SDS011;47463;49.884;10.010;2023-04-24T05:50:00;6.2;;;2.7;;
61570;SDS011;47463;49.884;10.010;2023-04-24T05:55:00;5.8;;;3.1;;
61570;SDS011;47463;49.884;10.010;2023-04-24T06:00:00;5.7;;;2.2;;
61570;SDS011;47463;49.884;10.010;2023-04-24T06:05:00;4.2;;;2.1;;
61570;SDS011;47463;49.884;10.010;2023-04-24T06:10:00;4;;;2.4;;
61570;SDS011;47463;49.884;10.010;2023-04-24T06:15:00;4.2;;;2.5;;
61570;SDS011;47463;49.884;10.010;2023-04-24T06:20:00;4.2;;;2.5;;
61570;SDS011;47463;49.884;10.010;2023-04-24T06:25:00;4.3;;;2;;
61570;SDS011;47463;49.884;10.010;2023-04-24T06:30:00;5.5;;;2.4;;
61570;SDS011;47463;49.884;10.010;2023-04-24T06:35:00;2.4;;;2;;
61570;SDS011;47463;49.884;10.010;2023-04-24T06:40:00;3.1;;;1.9;;
61570;SDS011;47463;49.884;10.010;2023-04-24T06:45:00;19.7;;;3.4;;
61570;SDS011;47463;49.884;10.010;2023-04-24T06:50:00;19.7;;;3.4;;
61570;SDS011;47463;49.884;10.010;2023-04-24T06:55:00;2.9;;;2.1;;
61570;SDS011;47463;49.884;10.010;2023-04-24T07:00:00;2.5;;;2;;
61570;SDS011;47463;49.884;10.010;2023-04-24T07:05:00;3.2;;;2.1;;
61570;SDS011;47463;49.884;10.010;2023-04-24T07:10:00;4.5;;;2.2;;
61570;SDS011;47463;49.884;10.010;2023-04-24T07:15:00;2.3;;;2;;
61570;SDS011;47463;49.884;10.010;2023-04-24T07:20:00;2.3;;;2;;
61570;SDS011;47463;49.884;10.010;2023-04-24T07:25:00;4.5;;;2.3;;
61570;SDS011;47463;49.884;10.010;2023-04-24T07:30:00;3.3;;;2.4;;
61570;SDS011;47463;49.884;10.010;2023-04-24T07:35:00;3.3;;;2.5;;
61570;SDS011;47463;49.884;10.010;2023-04-24T07:40:00;5.5;;;2.7;;
61570;SDS011;47463;49.884;10.010;2023-04-24T07:45:00;3.9;;;2.9;;
61570;SDS011;47463;49.884;10.010;2023-04-24T07:50:00;3.9;;;2.9;;
61570;SDS011;47463;49.884;10.010;2023-04-24T07:55:00;3.6;;;3.2;;
61570;SDS011;47463;49.884;10.010;2023-04-24T08:00:00;4.6;;;3.3;;
61570;SDS011;47463;49.884;10.010;2023-04-24T08:05:00;3.2;;;2.9;;
61570;SDS011;47463;49.884;10.010;2023-04-24T08:10:00;4.3;;;3.3;;
61570;SDS011;47463;49.884;10.010;2023-04-24T08:15:00;4.9;;;3.6;;
61570;SDS011;47463;49.884;10.010;2023-04-24T08:20:00;4.9;;;3.6;;
61570;SDS011;47463;49.884;10.010;2023-04-24T08:25:00;4;;;3.2;;
61570;SDS011;47463;49.884;10.010;2023-04-24T08:30:00;5.4;;;3.2;;
61570;SDS011;47463;49.884;10.010;2023-04-24T08:35:00;4.7;;;3.5;;
61570;SDS011;47463;49.884;10.010;2023-04-24T08:40:00;5.5;;;4;;
61570;SDS011;47463;49.884;10.010;2023-04-24T08:45:00;4.5;;;3.5;;
61570;SDS011;47463;49.884;10.010;2023-04-24T08:50:00;4.5;;;3.5;;
61570;SDS011;47463;49.884;10.010;2023-04-24T08:55:00;6.4;;;3.2;;
61570;SDS011;47463;49.884;10.010;2023-04-24T09:00:00;4.6;;;2.7;;
61570;SDS011;47463;49.884;10.010;2023-04-24T09:05:00;4.9;;;3.1;;
61570;SDS011;47463;49.884;10.010;2023-04-24T09:10:00;4.2;;;2.9;;
61570;SDS011;47463;49.884;10.010;2023-04-24T09:15:00;3.4;;;2.5;;
61570;SDS011;47463;49.884;10.010;2023-04-24T09:20:00;3.4;;;2.5;;
61570;SDS011;47463;49.884;10.010;2023-04-24T09:25:02;4;;;2.4;;
61570;SDS011;47463;49.884;10.010;2023-04-24T09:30:00;2.6;;;2.4;;
61570;SDS011;47463;49.884;10.010;2023-04-24T09:35:08;3.8;;;2.3;;
61570;SDS011;47463;49.884;10.010;2023-04-24T09:40:08;4;;;2.3;;
61570;SDS011;47463;49.884;10.010;2023-04-24T09:45:00;2.6;;;2.4;;
61570;SDS011;47463;49.884;10.010;2023-04-24T09:50:01;2.6;;;2.4;;
61570;SDS011;47463;49.884;10.010;2023-04-24T09:55:00;3.7;;;2.1;;
61570;SDS011;47463;49.884;10.010;2023-04-24T10:00:00;2.2;;;2;;
61570;SDS011;47463;49.884;10.010;2023-04-24T10:05:00;3.8;;;2.1;;
61570;SDS011;47463;49.884;10.010;2023-04-24T10:10:00;2.3;;;2;;
61570;SDS011;47463;49.884;10.010;2023-04-24T10:15:00;3.4;;;2.1;;
61570;SDS011;47463;49.884;10.010;2023-04-24T10:20:00;3.4;;;2.1;;
61570;SDS011;47463;49.884;10.010;2023-04-24T10:25:00;2.9;;;2.4;;
61570;SDS011;47463;49.884;10.010;2023-04-24T10:30:00;2.7;;;2.3;;
61570;SDS011;47463;49.884;10.010;2023-04-24T10:35:00;2.9;;;2.5;;
61570;SDS011;47463;49.884;10.010;2023-04-24T10:40:00;7.8;;;2.8;;
61570;SDS011;47463;49.884;10.010;2023-04-24T10:45:04;3.2;;;2.9;;
61570;SDS011;47463;49.884;10.010;2023-04-24T10:50:00;3.2;;;2.9;;
61570;SDS011;47463;49.884;10.010;2023-04-24T10:55:00;4.6;;;2.9;;
61570;SDS011;47463;49.884;10.010;2023-04-24T11:00:16;3.7;;;2.2;;
61570;SDS011;47463;49.884;10.010;2023-04-24T11:05:02;3.1;;;2.8;;
61570;SDS011;47463;49.884;10.010;2023-04-24T11:10:00;3;;;2.7;;
61570;SDS011;47463;49.884;10.010;2023-04-24T11:15:00;2.7;;;2.4;;
61570;SDS011;47463;49.884;10.010;2023-04-24T11:20:01;2.7;;;2.4;;
61570;SDS011;47463;49.884;10.010;2023-04-24T11:25:00;3.6;;;2.5;;
61570;SDS011;47463;49.884;10.010;2023-04-24T11:30:00;3.5;;;2.9;;
61570;SDS011;47463;49.884;10.010;2023-04-24T11:35:00;3.1;;;2.7;;
61570;SDS011;47463;49.884;10.010;2023-04-24T11:40:00;3.1;;;2.8;;
61570;SDS011;47463;49.884;10.010;2023-04-24T11:45:00;4;;;2.8;;
61570;SDS011;47463;49.884;10.010;2023-04-24T11:50:00;4;;;2.8;;
61570;SDS011;47463;49.884;10.010;2023-04-24T11:55:00;3.2;;;2.9;;
61570;SDS011;47463;49.884;10.010;2023-04-24T12:00:00;4.3;;;3.1;;
61570;SDS011;47463;49.884;10.010;2023-04-24T12:05:00;3.3;;;2.5;;
61570;SDS011;47463;49.884;10.010;2023-04-24T12:10:00;3.9;;;2.4;;
61570;SDS011;47463;49.884;10.010;2023-04-24T12:15:00;2;;;1.7;;
61570;SDS011;47463;49.884;10.010;2023-04-24T12:20:00;2;;;1.7;;
61570;SDS011;47463;49.884;10.010;2023-04-24T12:25:00;2.6;;;2.1;;
61570;SDS011;47463;49.884;10.010;2023-04-24T12:30:01;3.5;;;2.1;;
61570;SDS011;47463;49.884;10.010;2023-04-24T12:35:00;2.9;;;2.1;;
61570;SDS011;47463;49.884;10.010;2023-04-24T12:40:01;3.4;;;2;;
61570;SDS011;47463;49.884;10.010;2023-04-24T12:45:00;3.6;;;2.3;;
61570;SDS011;47463;49.884;10.010;2023-04-24T12:50:00;3.6;;;2.3;;
61570;SDS011;47463;49.884;10.010;2023-04-24T12:55:00;2.2;;;2;;
61570;SDS011;47463;49.884;10.010;2023-04-24T13:00:00;2.5;;;2;;
61570;SDS011;47463;49.884;10.010;2023-04-24T13:05:00;2.9;;;2.2;;
61570;SDS011;47463;49.884;10.010;2023-04-24T13:10:00;1.9;;;1.8;;
61570;SDS011;47463;49.884;10.010;2023-04-24T13:15:00;3.3;;;2.1;;
61570;SDS011;47463;49.884;10.010;2023-04-24T13:20:00;3.3;;;2.1;;
61570;SDS011;47463;49.884;10.010;2023-04-24T13:25:00;2.8;;;2.5;;
61570;SDS011;47463;49.884;10.010;2023-04-24T13:30:00;4.7;;;3.2;;
61570;SDS011;47463;49.884;10.010;2023-04-24T13:35:00;4.1;;;3.7;;
61570;SDS011;47463;49.884;10.010;2023-04-24T13:40:00;3.5;;;3.2;;
61570;SDS011;47463;49.884;10.010;2023-04-24T13:45:00;5.2;;;3.5;;
61570;SDS011;47463;49.884;10.010;2023-04-24T13:50:00;5.2;;;3.5;;
61570;SDS011;47463;49.884;10.010;2023-04-24T13:55:00;5;;;3.6;;
61570;SDS011;47463;49.884;10.010;2023-04-24T14:00:00;4.6;;;3.3;;
61570;SDS011;47463;49.884;10.010;2023-04-24T14:05:00;4;;;3.4;;
61570;SDS011;47463;49.884;10.010;2023-04-24T14:10:00;4.2;;;3.4;;
61570;SDS011;47463;49.884;10.010;2023-04-24T14:15:00;4.2;;;2.9;;
61570;SDS011;47463;49.884;10.010;2023-04-24T14:20:00;4.2;;;2.9;;
61570;SDS011;47463;49.884;10.010;2023-04-24T14:25:00;3.5;;;2.7;;
61570;SDS011;47463;49.884;10.010;2023-04-24T14:30:00;4.5;;;2.9;;
61570;SDS011;47463;49.884;10.010;2023-04-24T14:35:00;3.1;;;2.8;;
61570;SDS011;47463;49.884;10.010;2023-04-24T14:40:00;5.1;;;3.5;;
61570;SDS011;47463;49.884;10.010;2023-04-24T14:45:00;5.8;;;3.7;;
61570;SDS011;47463;49.884;10.010;2023-04-24T14:50:00;5.8;;;3.7;;
61570;SDS011;47463;49.884;10.010;2023-04-24T14:55:00;4.5;;;2.7;;
61570;SDS011;47463;49.884;10.010;2023-04-24T15:00:00;3.8;;;2.9;;
61570;SDS011;47463;49.884;10.010;2023-04-24T15:05:00;3.4;;;2.3;;
61570;SDS011;47463;49.884;10.010;2023-04-24T15:10:00;4.4;;;3.2;;
61570;SDS011;47463;49.884;10.010;2023-04-24T15:15:00;4.7;;;3.2;;
61570;SDS011;47463;49.884;10.010;2023-04-24T15:20:00;4.7;;;3.2;;
61570;SDS011;47463;49.884;10.010;2023-04-24T15:25:00;3.6;;;2.9;;
61570;SDS011;47463;49.884;10.010;2023-04-24T15:30:00;5.8;;;3.5;;
61570;SDS011;47463;49.884;10.010;2023-04-24T15:35:00;6;;;3.7;;
61570;SDS011;47463;49.884;10.010;2023-04-24T15:40:00;5.2;;;3.7;;
61570;SDS011;47463;49.884;10.010;2023-04-24T15:45:00;5.6;;;3.8;;
61570;SDS011;47463;49.884;10.010;2023-04-24T15:50:00;5.6;;;3.8;;
61570;SDS011;47463;49.884;10.010;2023-04-24T15:55:00;4.5;;;3.6;;
61570;SDS011;47463;49.884;10.010;2023-04-24T16:00:00;6.3;;;4.1;;
61570;SDS011;47463;49.884;10.010;2023-04-24T16:05:00;5.4;;;4.1;;
61570;SDS011;47463;49.884;10.010;2023-04-24T16:10:00;5.4;;;4.1;;
61570;SDS011;47463;49.884;10.010;2023-04-24T16:15:00;5.6;;;4.3;;
61570;SDS011;47463;49.884;10.010;2023-04-24T16:20:00;5.6;;;4.3;;
61570;SDS011;47463;49.884;10.010;2023-04-24T16:25:00;7.4;;;4.2;;
61570;SDS011;47463;49.884;10.010;2023-04-24T16:30:00;7.7;;;3.9;;
61570;SDS011;47463;49.884;10.010;2023-04-24T16:35:00;7.7;;;3.8;;
61570;SDS011;47463;49.884;10.010;2023-04-24T16:40:00;5.3;;;3.7;;
61570;SDS011;47463;49.884;10.010;2023-04-24T16:45:00;6;;;4;;
61570;SDS011;47463;49.884;10.010;2023-04-24T16:50:00;6;;;4;;
61570;SDS011;47463;49.884;10.010;2023-04-24T16:55:00;6.1;;;4.2;;
61570;SDS011;47463;49.884;10.010;2023-04-24T17:00:00;5.8;;;3.8;;
61570;SDS011;47463;49.884;10.010;2023-04-24T17:05:00;5.5;;;3.9;;
61570;SDS011;47463;49.884;10.010;2023-04-24T17:10:00;4.8;;;3.8;;
61570;SDS011;47463;49.884;10.010;2023-04-24T17:15:00;6.1;;;4;;
61570;SDS011;47463;49.884;10.010;2023-04-24T17:20:00;6.1;;;4;;
61570;SDS011;47463;49.884;10.010;2023-04-24T17:25:00;5.9;;;4;;
61570;SDS011;47463;49.884;10.010;2023-04-24T17:30:00;7.2;;;4;;
61570;SDS011;47463;49.884;10.010;2023-04-24T17:35:00;5.9;;;3.9;;
61570;SDS011;47463;49.884;10.010;2023-04-24T17:40:00;5;;;3.6;;
61570;SDS011;47463;49.884;10.010;2023-04-24T17:45:00;5.6;;;3.8;;
61570;SDS011;47463;49.884;10.010;2023-04-24T17:50:00;5.6;;;3.8;;
61570;SDS011;47463;49.884;10.010;2023-04-24T17:55:00;8.7;;;3.8;;
61570;SDS011;47463;49.884;10.010;2023-04-24T18:00:00;5.2;;;4;;
61570;SDS011;47463;49.884;10.010;2023-04-24T18:05:00;7.1;;;3.6;;
61570;SDS011;47463;49.884;10.010;2023-04-24T18:10:00;5.2;;;3.5;;
61570;SDS011;47463;49.884;10.010;2023-04-24T18:15:00;5.3;;;4.3;;
61570;SDS011;47463;49.884;10.010;2023-04-24T18:20:00;5.3;;;4.3;;
61570;SDS011;47463;49.884;10.010;2023-04-24T18:25:00;7.4;;;5.1;;
61570;SDS011;47463;49.884;10.010;2023-04-24T18:30:00;7.8;;;5.4;;
61570;SDS011;47463;49.884;10.010;2023-04-24T18:35:00;9.2;;;4.8;;
61570;SDS011;47463;49.884;10.010;2023-04-24T18:40:00;5.7;;;4.9;;
61570;SDS011;47463;49.884;10.010;2023-04-24T18:45:00;7.9;;;5.7;;
61570;SDS011;47463;49.884;10.010;2023-04-24T18:50:00;7.9;;;5.7;;
61570;SDS011;47463;49.884;10.010;2023-04-24T18:55:00;7.3;;;6;;
61570;SDS011;47463;49.884;10.010;2023-04-24T19:00:00;8.6;;;5.9;;
61570;SDS011;47463;49.884;10.010;2023-04-24T19:05:00;9;;;6;;
61570;SDS011;47463;49.884;10.010;2023-04-24T19:10:00;9.6;;;6.4;;
61570;SDS011;47463;49.884;10.010;2023-04-24T19:15:00;7.2;;;6.3;;
61570;SDS011;47463;49.884;10.010;2023-04-24T19:20:00;7.2;;;6.3;;
61570;SDS011;47463;49.884;10.010;2023-04-24T19:25:00;9.8;;;7;;
61570;SDS011;47463;49.884;10.010;2023-04-24T19:30:00;10.5;;;6.5;;
61570;SDS011;47463;49.884;10.010;2023-04-24T19:35:00;10.8;;;6.9;;
61570;SDS011;47463;49.884;10.010;2023-04-24T19:40:00;10;;;6.6;;
61570;SDS011;47463;49.884;10.010;2023-04-24T19:45:00;9.8;;;7.1;;
61570;SDS011;47463;49.884;10.010;2023-04-24T19:50:00;9.8;;;7.1;;
61570;SDS011;47463;49.884;10.010;2023-04-24T19:55:00;9.4;;;6.4;;
61570;SDS011;47463;49.884;10.010;2023-04-24T20:00:00;8.7;;;6.1;;
61570;SDS011;47463;49.884;10.010;2023-04-24T20:05:00;8.6;;;6.3;;
61570;SDS011;47463;49.884;10.010;2023-04-24T20:10:00;7.8;;;6.2;;
61570;SDS011;47463;49.884;10.010;2023-04-24T20:15:00;9.1;;;6.3;;
61570;SDS011;47463;49.884;10.010;2023-04-24T20:20:00;9.1;;;6.3;;
61570;SDS011;47463;49.884;10.010;2023-04-24T20:25:00;9.6;;;5.9;;
61570;SDS011;47463;49.884;10.010;2023-04-24T20:30:00;9.7;;;7;;
61570;SDS011;47463;49.884;10.010;2023-04-24T20:35:00;8.6;;;6.6;;
61570;SDS011;47463;49.884;10.010;2023-04-24T20:40:00;8.9;;;6.2;;
61570;SDS011;47463;49.884;10.010;2023-04-24T20:45:00;6;;;4.8;;
61570;SDS011;47463;49.884;10.010;2023-04-24T20:50:00;6;;;4.8;;
61570;SDS011;47463;49.884;10.010;2023-04-24T20:55:00;7.6;;;5;;
61570;SDS011;47463;49.884;10.010;2023-04-24T21:00:00;8;;;5.1;;
61570;SDS011;47463;49.884;10.010;2023-04-24T21:05:00;8.2;;;5.4;;
61570;SDS011;47463;49.884;10.010;2023-04-24T21:10:00;9.7;;;6.4;;
61570;SDS011;47463;49.884;10.010;2023-04-24T21:15:00;8.5;;;6.7;;
61570;SDS011;47463;49.884;10.010;2023-04-24T21:20:00;8.5;;;6.7;;
61570;SDS011;47463;49.884;10.010;2023-04-24T21:25:00;9.6;;;6.9;;
61570;SDS011;47463;49.884;10.010;2023-04-24T21:30:00;7.9;;;5.8;;
61570;SDS011;47463;49.884;10.010;2023-04-24T21:35:00;8.2;;;6.1;;
61570;SDS011;47463;49.884;10.010;2023-04-24T21:40:00;6.9;;;5.2;;
61570;SDS011;47463;49.884;10.010;2023-04-24T21:45:00;8;;;5.8;;
61570;SDS011;47463;49.884;10.010;2023-04-24T21:50:00;8;;;5.8;;
61570;SDS011;47463;49.884;10.010;2023-04-24T21:55:00;8.3;;;6.2;;
61570;SDS011;47463;49.884;10.010;2023-04-24T22:00:00;9.2;;;6.6;;
61570;SDS011;47463;49.884;10.010;2023-04-24T22:05:00;9.4;;;6.9;;
61570;SDS011;47463;49.884;10.010;2023-04-24T22:10:00;10;;;7;;
61570;SDS011;47463;49.884;10.010;2023-04-24T22:15:00;11.7;;;7.1;;
61570;SDS011;47463;49.884;10.010;2023-04-24T22:20:00;11.7;;;7.1;;
61570;SDS011;47463;49.884;10.010;2023-04-24T22:25:00;9.2;;;6.6;;
61570;SDS011;47463;49.884;10.010;2023-04-24T22:30:00;10.3;;;7;;
61570;SDS011;47463;49.884;10.010;2023-04-24T22:35:00;9.1;;;6.7;;
61570;SDS011;47463;49.884;10.010;2023-04-24T22:40:00;11.8;;;7.2;;
61570;SDS011;47463;49.884;10.010;2023-04-24T22:45:00;11;;;7.1;;
61570;SDS011;47463;49.884;10.010;2023-04-24T22:50:00;11;;;7.1;;
61570;SDS011;47463;49.884;10.010;2023-04-24T22:55:00;10.4;;;6.6;;
61570;SDS011;47463;49.884;10.010;2023-04-24T23:00:00;13;;;7.9;;
61570;SDS011;47463;49.884;10.010;2023-04-24T23:05:00;10;;;6.7;;
61570;SDS011;47463;49.884;10.010;2023-04-24T23:10:00;11.7;;;7.5;;
61570;SDS011;47463;49.884;10.010;2023-04-24T23:15:00;12.8;;;7.6;;
61570;SDS011;47463;49.884;10.010;2023-04-24T23:20:00;12.8;;;7.6;;
61570;SDS011;47463;49.884;10.010;2023-04-24T23:25:00;11;;;7.7;;
61570;SDS011;47463;49.884;10.010;2023-04-24T23:30:00;11.5;;;7.5;;
61570;SDS011;47463;49.884;10.010;2023-04-24T23:35:00;10.4;;;7.9;;
61570;SDS011;47463;49.884;10.010;2023-04-24T23:40:00;11.2;;;7.6;;
61570;SDS011;47463;49.884;10.010;2023-04-24T23:45:00;12.5;;;8;;
61570;SDS011;47463;49.884;10.010;2023-04-24T23:50:00;12.5;;;8;;
61570;SDS011;47463;49.884;10.010;2023-04-24T23:55:00;10.3;;;7.3;;
